Time;durP1;ratioP1;P1;durP2;ratioP2;P2;SDS_P1;SDS_P2;PMS_P1;PMS_P2;Temp;Humidity;BMP_temperature;BMP_pressure;BME280_temperature;BME280_humidity;BME280_pressure;Samples;Min_cycle;Max_cycle;Signal;HPM_P1;HPM_P2
2024/03/04 00:00:46;;;;;;;25.10;11.80;;;8.30;99.90;;;;;;5067354;28;20052;-91
2024/03/04 00:03:12;;;;;;;23.63;11.82;;;8.30;99.90;;;;;;5022198;28;20026;-91
2024/03/04 00:05:40;;;;;;;22.50;11.73;;;8.30;99.90;;;;;;5031169;28;20415;-90
2024/03/04 00:08:07;;;;;;;24.73;12.30;;;8.30;99.90;;;;;;5055670;28;20029;-90
2024/03/04 00:10:33;;;;;;;24.35;12.52;;;8.30;99.90;;;;;;5043364;28;20510;-90
2024/03/04 00:12:58;;;;;;;31.55;13.65;;;8.20;99.90;;;;;;5064868;28;20029;-92
2024/03/04 00:15:24;;;;;;;23.75;12.18;;;8.20;99.90;;;;;;5044420;28;20024;-91
2024/03/04 00:17:51;;;;;;;29.27;14.32;;;8.30;99.90;;;;;;5044740;28;20044;-91
2024/03/04 00:20:18;;;;;;;25.30;12.15;;;8.20;99.90;;;;;;5057266;28;20526;-91
2024/03/04 00:22:54;;;;;;;27.98;13.55;;;8.20;99.90;;;;;;5065740;28;20486;-90
2024/03/04 00:25:26;;;;;;;26.90;13.32;;;8.20;99.90;;;;;;5048528;28;20029;-88
2024/03/04 00:27:58;;;;;;;28.88;13.43;;;8.20;99.90;;;;;;5060376;28;20066;-89
2024/03/04 00:30:26;;;;;;;30.98;14.00;;;8.20;99.90;;;;;;5047145;28;20112;-91
2024/03/04 00:32:52;;;;;;;28.30;14.95;;;8.20;99.90;;;;;;5044026;28;20025;-90
2024/03/04 00:35:19;;;;;;;29.58;13.45;;;8.20;99.90;;;;;;5060275;28;20031;-90
2024/03/04 00:37:45;;;;;;;29.33;13.95;;;8.20;99.90;;;;;;5072648;28;20025;-91
2024/03/04 00:40:17;;;;;;;28.40;16.00;;;8.30;99.90;;;;;;5048012;28;20156;-90
2024/03/04 00:42:43;;;;;;;29.60;14.55;;;8.30;99.90;;;;;;5043709;28;20722;-90
2024/03/04 00:45:09;;;;;;;28.08;14.40;;;8.20;99.90;;;;;;5059160;28;20082;-89
2024/03/04 00:47:35;;;;;;;31.48;12.85;;;8.20;99.90;;;;;;5057411;28;20017;-90
2024/03/04 00:50:01;;;;;;;34.90;14.77;;;8.30;99.90;;;;;;5054421;28;20528;-87
2024/03/04 00:52:30;;;;;;;31.65;14.30;;;8.20;99.90;;;;;;5057608;28;20086;-89
2024/03/04 00:55:03;;;;;;;27.95;15.38;;;8.30;99.90;;;;;;5039056;28;20115;-89
2024/03/04 00:57:28;;;;;;;30.05;14.75;;;8.30;99.90;;;;;;5062083;28;20025;-91
2024/03/04 01:00:03;;;;;;;32.17;14.02;;;8.20;99.90;;;;;;5054785;28;20026;-91
2024/03/04 01:02:33;;;;;;;30.17;15.35;;;8.30;99.90;;;;;;5047606;28;20071;-89
2024/03/04 01:04:59;;;;;;;;;;;8.30;99.90;;;;;;5048048;28;20020;-90
2024/03/04 01:07:24;;;;;;;35.80;14.82;;;8.30;99.90;;;;;;5056950;28;19930;-90
2024/03/04 01:09:50;;;;;;;36.28;16.55;;;8.30;99.90;;;;;;5057687;28;20051;-91
2024/03/04 01:12:22;;;;;;;31.88;14.98;;;8.30;99.90;;;;;;5051712;28;20548;-90
2024/03/04 01:14:51;;;;;;;33.63;15.57;;;8.30;99.90;;;;;;5069481;28;20025;-90
2024/03/04 01:17:16;;;;;;;33.45;16.38;;;8.30;99.90;;;;;;5031922;28;20048;-90
2024/03/04 01:19:45;;;;;;;33.70;15.80;;;8.30;99.90;;;;;;5071931;28;20021;-90
2024/03/04 01:22:18;;;;;;;37.85;15.45;;;8.30;99.90;;;;;;5041337;28;20093;-92
2024/03/04 01:24:53;;;;;;;33.90;14.90;;;8.30;99.90;;;;;;5052165;28;20028;-91
2024/03/04 01:27:20;;;;;;;32.88;15.10;;;8.30;99.90;;;;;;5049176;28;20021;-90
2024/03/04 01:29:45;;;;;;;37.75;17.02;;;8.30;99.90;;;;;;5045849;28;20039;-92
2024/03/04 01:32:11;;;;;;;36.17;16.65;;;8.30;99.90;;;;;;5048456;28;20047;-92
2024/03/04 01:34:40;;;;;;;33.05;15.38;;;8.30;99.90;;;;;;5037332;28;20021;-91
2024/03/04 01:37:12;;;;;;;33.83;15.30;;;8.40;99.90;;;;;;5064417;28;20078;-91
2024/03/04 01:39:37;;;;;;;38.10;15.52;;;8.40;99.90;;;;;;5060940;28;20029;-88
2024/03/04 01:42:06;;;;;;;32.90;13.82;;;8.40;99.90;;;;;;5066284;28;20550;-90
2024/03/04 01:44:40;;;;;;;33.25;15.93;;;8.40;99.90;;;;;;5043683;28;20506;-91
2024/03/04 01:47:17;;;;;;;39.35;16.75;;;8.30;99.90;;;;;;5043014;28;20033;-90
2024/03/04 01:49:47;;;;;;;39.17;16.27;;;8.40;99.90;;;;;;5069163;28;20020;-90
2024/03/04 01:52:14;;;;;;;36.53;14.63;;;8.40;99.90;;;;;;5058027;28;20018;-91
2024/03/04 01:54:45;;;;;;;39.33;16.27;;;8.40;99.90;;;;;;5048395;28;20027;-91
2024/03/04 01:57:18;;;;;;;42.03;16.23;;;8.40;99.90;;;;;;5047739;28;20043;-92
2024/03/04 01:59:47;;;;;;;35.92;16.02;;;8.40;99.90;;;;;;5050646;28;20028;-90
2024/03/04 02:02:13;;;;;;;38.58;16.33;;;8.40;99.90;;;;;;5028623;28;20022;-91
2024/03/04 02:04:41;;;;;;;39.10;16.15;;;8.40;99.90;;;;;;5030936;28;20087;-91
2024/03/04 02:07:10;;;;;;;41.35;16.88;;;8.40;99.90;;;;;;5060886;28;20035;-89
2024/03/04 02:09:46;;;;;;;37.45;16.05;;;8.40;99.90;;;;;;5061544;28;20078;-90
2024/03/04 02:12:11;;;;;;;37.33;15.88;;;8.40;99.90;;;;;;5042593;28;20026;-91
2024/03/04 02:14:38;;;;;;;42.45;19.33;;;8.40;99.90;;;;;;5039292;28;20034;-90
2024/03/04 02:17:05;;;;;;;39.72;18.13;;;8.40;99.90;;;;;;5052133;28;20082;-91
2024/03/04 02:19:33;;;;;;;46.00;18.65;;;8.40;99.90;;;;;;5068525;28;20025;-94
2024/03/04 02:22:06;;;;;;;45.13;18.05;;;8.40;99.90;;;;;;5043665;28;20031;-90
2024/03/04 02:24:43;;;;;;;46.58;19.83;;;8.40;99.90;;;;;;5058457;28;20534;-89
2024/03/04 02:27:11;;;;;;;42.80;19.17;;;8.40;99.90;;;;;;5068026;28;20025;-90
2024/03/04 02:29:37;;;;;;;45.88;18.33;;;8.30;99.90;;;;;;5045722;28;20025;-92
2024/03/04 02:32:03;;;;;;;42.10;18.88;;;8.30;99.90;;;;;;5060468;28;20073;-91
2024/03/04 02:34:29;;;;;;;46.10;19.33;;;8.30;99.90;;;;;;5058032;28;20024;-90
2024/03/04 02:36:56;;;;;;;44.92;18.55;;;8.30;99.90;;;;;;5050916;28;20062;-90
2024/03/04 02:39:23;;;;;;;43.03;17.40;;;8.20;99.90;;;;;;5037252;28;20784;-91
2024/03/04 02:41:49;;;;;;;40.53;16.95;;;8.30;99.90;;;;;;5054947;28;20116;-90
2024/03/04 02:44:15;;;;;;;40.75;21.08;;;8.30;99.90;;;;;;5042982;28;20024;-90
2024/03/04 02:46:43;;;;;;;40.80;20.40;;;8.30;99.90;;;;;;5067861;28;20438;-90
2024/03/04 02:49:17;;;;;;;46.58;19.17;;;8.30;99.90;;;;;;5058587;28;20056;-91
2024/03/04 02:51:43;;;;;;;46.13;19.48;;;8.20;99.90;;;;;;5041644;28;20097;-90
2024/03/04 02:54:11;;;;;;;44.33;20.40;;;8.20;99.90;;;;;;5025565;28;20040;-90
2024/03/04 02:56:38;;;;;;;49.22;19.20;;;8.20;99.90;;;;;;5043690;28;20029;-89
2024/03/04 02:59:09;;;;;;;53.00;18.95;;;8.20;99.90;;;;;;5059002;28;20078;-91
2024/03/04 03:01:35;;;;;;;48.13;20.13;;;8.20;99.90;;;;;;5075959;28;20013;-90
2024/03/04 03:04:01;;;;;;;48.45;21.65;;;8.20;99.90;;;;;;5086032;28;20029;-91
2024/03/04 03:06:28;;;;;;;49.50;19.55;;;8.20;99.90;;;;;;5081978;28;20048;-94
2024/03/04 03:08:57;;;;;;;48.92;18.63;;;8.30;99.90;;;;;;5070626;28;20021;-91
2024/03/04 03:11:23;;;;;;;55.25;24.15;;;8.20;99.90;;;;;;5067169;28;20032;-94
2024/03/04 03:13:49;;;;;;;51.00;20.45;;;8.10;99.90;;;;;;5077001;28;20012;-92
2024/03/04 03:16:27;;;;;;;49.35;19.58;;;8.20;99.90;;;;;;5071622;28;20040;-96
2024/03/04 03:18:56;;;;;;;48.97;19.60;;;8.20;99.90;;;;;;5063851;28;20032;-94
2024/03/04 03:21:33;;;;;;;55.85;22.15;;;8.10;99.90;;;;;;5065721;28;20021;-91
2024/03/04 03:24:00;;;;;;;56.90;22.65;;;8.20;99.90;;;;;;5054344;28;20018;-91
2024/03/04 03:26:26;;;;;;;52.60;22.70;;;8.10;99.90;;;;;;5063657;28;20530;-90
2024/03/04 03:28:59;;;;;;;48.92;21.92;;;8.10;99.90;;;;;;5066401;28;20037;-92
2024/03/04 03:31:25;;;;;;;51.92;21.98;;;8.10;99.90;;;;;;5054731;28;20557;-90
2024/03/04 03:33:51;;;;;;;51.47;21.85;;;8.10;99.90;;;;;;5031966;28;20025;-90
2024/03/04 03:36:17;;;;;;;57.22;23.40;;;8.10;99.90;;;;;;5066048;28;20036;-91
2024/03/04 03:38:42;;;;;;;51.90;20.92;;;8.10;99.90;;;;;;5072563;28;20040;-90
2024/03/04 03:41:08;;;;;;;54.70;21.42;;;8.10;99.90;;;;;;5052456;28;20032;-90
2024/03/04 03:43:36;;;;;;;50.22;23.55;;;8.10;99.90;;;;;;5060290;28;20029;-93
2024/03/04 03:46:02;;;;;;;50.58;21.13;;;8.10;99.90;;;;;;5058798;28;20033;-91
2024/03/04 03:48:29;;;;;;;55.50;21.27;;;8.10;99.90;;;;;;5051594;28;20025;-90
2024/03/04 03:50:55;;;;;;;56.92;21.42;;;8.10;99.90;;;;;;5075506;28;20040;-91
2024/03/04 03:53:22;;;;;;;54.20;22.65;;;8.00;99.90;;;;;;5052149;28;20087;-91
2024/03/04 03:55:48;;;;;;;58.00;21.42;;;8.10;99.90;;;;;;5053052;28;20025;-91
2024/03/04 03:58:14;;;;;;;56.17;20.33;;;8.00;99.90;;;;;;5053898;28;20025;-91
2024/03/04 04:00:40;;;;;;;61.80;23.73;;;8.00;99.90;;;;;;5063152;28;20028;-89
2024/03/04 04:03:05;;;;;;;52.72;22.08;;;8.00;99.90;;;;;;5050272;28;20036;-92
2024/03/04 04:05:31;;;;;;;57.20;20.58;;;8.10;99.90;;;;;;5066893;28;20036;-90
2024/03/04 04:07:58;;;;;;;57.25;21.83;;;8.00;99.90;;;;;;5045482;28;20024;-89
2024/03/04 04:10:23;;;;;;;60.80;24.45;;;8.10;99.90;;;;;;5067663;28;20630;-90
2024/03/04 04:12:57;;;;;;;64.25;26.33;;;7.90;99.90;;;;;;5059604;28;20186;-90
2024/03/04 04:15:22;;;;;;;58.40;20.25;;;8.00;99.90;;;;;;5041579;28;20029;-91
2024/03/04 04:17:48;;;;;;;62.40;26.08;;;7.90;99.90;;;;;;5058507;28;20024;-92
2024/03/04 04:20:14;;;;;;;65.93;23.45;;;7.90;99.90;;;;;;5062198;28;20059;-91
2024/03/04 04:22:40;;;;;;;62.97;24.42;;;7.90;99.90;;;;;;5052686;28;20070;-91
2024/03/04 04:25:13;;;;;;;64.80;26.30;;;7.90;99.90;;;;;;5070068;28;20081;-90
2024/03/04 04:27:39;;;;;;;64.82;21.38;;;7.90;99.90;;;;;;5041870;28;20108;-89
2024/03/04 04:30:06;;;;;;;61.20;22.42;;;7.90;99.90;;;;;;5059074;28;20604;-93
2024/03/04 04:32:34;;;;;;;60.22;23.02;;;7.90;99.90;;;;;;5058299;28;20045;-90
2024/03/04 04:34:59;;;;;;;66.97;25.20;;;7.90;99.90;;;;;;5041809;28;20505;-92
2024/03/04 04:37:25;;;;;;;64.00;23.38;;;7.90;99.90;;;;;;5048136;28;20026;-90
2024/03/04 04:39:51;;;;;;;67.35;25.83;;;7.90;99.90;;;;;;5033754;28;20059;-91
2024/03/04 04:42:16;;;;;;;61.28;23.25;;;7.90;99.90;;;;;;5051380;28;20029;-89
2024/03/04 04:44:46;;;;;;;62.40;25.80;;;7.90;99.90;;;;;;5064135;28;20032;-91
2024/03/04 04:47:11;;;;;;;62.58;25.67;;;7.80;99.90;;;;;;5075450;28;20047;-91
2024/03/04 04:49:37;;;;;;;58.67;23.58;;;7.80;99.90;;;;;;5040437;28;20483;-90
2024/03/04 04:52:03;;;;;;;59.95;24.08;;;7.80;99.90;;;;;;5041964;28;20029;-93
2024/03/04 04:54:29;;;;;;;57.15;22.10;;;7.80;99.90;;;;;;5050359;28;20032;-91
2024/03/04 04:56:55;;;;;;;61.47;22.02;;;7.80;99.90;;;;;;5058684;28;20013;-91
2024/03/04 04:59:20;;;;;;;57.80;23.73;;;7.80;99.90;;;;;;5037999;28;20037;-91
2024/03/04 05:01:46;;;;;;;63.05;25.05;;;7.80;99.90;;;;;;5059656;28;20033;-91
2024/03/04 05:04:12;;;;;;;62.83;21.90;;;7.80;99.90;;;;;;5061247;28;20035;-91
2024/03/04 05:06:38;;;;;;;65.78;24.77;;;7.80;99.90;;;;;;5073706;28;20080;-91
2024/03/04 05:09:05;;;;;;;65.35;24.90;;;7.80;99.90;;;;;;5043692;28;20028;-89
2024/03/04 05:11:32;;;;;;;60.67;22.95;;;7.70;99.90;;;;;;5052691;28;20120;-90
2024/03/04 05:13:59;;;;;;;68.47;25.40;;;7.80;99.90;;;;;;5062883;28;20032;-91
2024/03/04 05:16:25;;;;;;;61.30;21.10;;;7.80;99.90;;;;;;5058010;28;20100;-89
2024/03/04 05:18:53;;;;;;;63.15;22.95;;;7.80;99.90;;;;;;5058727;28;20044;-92
2024/03/04 05:21:18;;;;;;;;;;;7.80;99.90;;;;;;5057842;28;20044;-91
2024/03/04 05:23:47;;;;;;;59.95;21.27;;;7.70;99.90;;;;;;5059089;28;19916;-90
2024/03/04 05:26:13;;;;;;;62.78;23.05;;;7.70;99.90;;;;;;5057229;28;20734;-90
2024/03/04 05:28:41;;;;;;;61.35;24.20;;;7.80;99.90;;;;;;5066641;28;20028;-87
2024/03/04 05:31:07;;;;;;;61.63;24.02;;;7.80;99.90;;;;;;5058806;28;20033;-90
2024/03/04 05:33:36;;;;;;;65.07;24.92;;;7.90;99.90;;;;;;5057587;28;20043;-91
2024/03/04 05:36:04;;;;;;;63.70;23.85;;;7.70;99.90;;;;;;5057585;28;20033;-90
2024/03/04 05:38:31;;;;;;;76.50;27.52;;;7.70;99.90;;;;;;5041101;28;20032;-90
2024/03/04 05:40:57;;;;;;;65.10;23.75;;;7.80;99.90;;;;;;5057567;28;20025;-91
2024/03/04 05:43:23;;;;;;;60.38;24.48;;;7.80;99.90;;;;;;5053333;28;20384;-90
2024/03/04 05:45:49;;;;;;;63.15;24.20;;;7.80;99.90;;;;;;5026248;28;20029;-90
2024/03/04 05:48:14;;;;;;;63.35;23.70;;;7.80;99.90;;;;;;5060095;28;20021;-91
2024/03/04 05:50:46;;;;;;;58.38;21.50;;;7.80;99.90;;;;;;5064027;28;20028;-92
2024/03/04 05:53:12;;;;;;;62.05;24.38;;;7.70;99.90;;;;;;5065353;28;20040;-90
2024/03/04 05:55:37;;;;;;;62.60;23.20;;;7.80;99.90;;;;;;5060981;28;20036;-91
2024/03/04 05:58:03;;;;;;;64.82;22.85;;;7.80;99.90;;;;;;5078063;28;20092;-91
2024/03/04 06:00:33;;;;;;;78.13;24.75;;;7.80;99.90;;;;;;5056657;28;20029;-90
2024/03/04 06:02:59;;;;;;;66.68;24.63;;;7.80;99.90;;;;;;5059332;28;20024;-91
2024/03/04 06:05:24;;;;;;;65.53;24.45;;;7.80;99.90;;;;;;5068444;28;20020;-91
2024/03/04 06:07:51;;;;;;;58.42;22.63;;;7.80;99.90;;;;;;5053760;28;20096;-90
2024/03/04 06:10:17;;;;;;;57.00;23.80;;;7.80;99.90;;;;;;5062157;28;20030;-92
2024/03/04 06:12:43;;;;;;;65.05;26.23;;;7.80;99.90;;;;;;5074667;28;20021;-90
2024/03/04 06:15:09;;;;;;;66.60;24.15;;;7.80;99.90;;;;;;5057168;28;20093;-91
2024/03/04 06:17:34;;;;;;;63.42;22.92;;;7.90;99.90;;;;;;5077020;28;20036;-90
2024/03/04 06:20:00;;;;;;;51.72;21.17;;;7.80;99.90;;;;;;5061057;28;20033;-91
2024/03/04 06:22:26;;;;;;;66.10;25.30;;;7.80;99.90;;;;;;5056561;28;20175;-92
2024/03/04 06:24:51;;;;;;;63.78;23.33;;;7.80;99.90;;;;;;5061550;28;20499;-90
2024/03/04 06:27:17;;;;;;;63.88;24.20;;;7.80;99.90;;;;;;5060838;28;20028;-91
2024/03/04 06:29:43;;;;;;;59.60;22.20;;;7.80;99.90;;;;;;5054840;28;20025;-90
2024/03/04 06:32:08;;;;;;;62.25;22.77;;;7.80;99.90;;;;;;5058937;28;20048;-91
2024/03/04 06:34:34;;;;;;;63.38;23.00;;;7.80;99.90;;;;;;5061924;28;20089;-89
2024/03/04 06:37:00;;;;;;;60.90;25.20;;;7.80;99.90;;;;;;5062634;28;20029;-90
2024/03/04 06:39:27;;;;;;;59.75;23.27;;;7.80;99.90;;;;;;5063382;28;20021;-92
2024/03/04 06:41:53;;;;;;;62.00;23.00;;;7.80;99.90;;;;;;5052945;28;20088;-92
2024/03/04 06:44:18;;;;;;;58.42;23.05;;;7.80;99.90;;;;;;5063483;28;20063;-88
2024/03/04 06:46:44;;;;;;;67.32;24.88;;;7.90;99.90;;;;;;5066368;28;20052;-91
2024/03/04 06:49:10;;;;;;;63.05;23.55;;;7.80;99.90;;;;;;5061038;28;20017;-90
2024/03/04 06:51:36;;;;;;;60.95;21.38;;;7.90;99.90;;;;;;5061350;28;20057;-91
2024/03/04 06:54:06;;;;;;;69.07;23.88;;;7.90;99.90;;;;;;5053540;28;20029;-92
2024/03/04 06:56:36;;;;;;;60.80;23.10;;;7.90;99.90;;;;;;5048951;28;20033;-92
2024/03/04 06:59:02;;;;;;;61.33;24.42;;;7.90;99.90;;;;;;5057844;28;20025;-92
2024/03/04 07:01:28;;;;;;;64.78;23.48;;;7.90;99.90;;;;;;5043173;28;20033;-90
2024/03/04 07:03:57;;;;;;;68.63;24.08;;;7.90;99.90;;;;;;5053628;28;20036;-91
2024/03/04 07:06:23;;;;;;;56.22;23.20;;;7.90;99.90;;;;;;5074431;28;20021;-90
2024/03/04 07:08:49;;;;;;;63.30;22.30;;;7.90;99.90;;;;;;5059242;28;20093;-91
2024/03/04 07:11:15;;;;;;;63.38;22.50;;;7.90;99.90;;;;;;5021772;28;20048;-90
2024/03/04 07:13:41;;;;;;;60.58;23.85;;;8.00;99.90;;;;;;5017259;28;20461;-91
2024/03/04 07:16:07;;;;;;;59.20;24.65;;;7.90;99.90;;;;;;5012012;28;20047;-89
2024/03/04 07:18:34;;;;;;;63.85;24.20;;;8.00;99.90;;;;;;4967102;28;20029;-91
2024/03/04 07:21:00;;;;;;;58.75;22.38;;;8.00;99.90;;;;;;4990073;28;20499;-92
2024/03/04 07:23:27;;;;;;;65.30;24.38;;;8.00;99.90;;;;;;5007464;28;20116;-90
2024/03/04 07:25:52;;;;;;;66.68;23.67;;;8.00;99.90;;;;;;5014466;28;20025;-91
2024/03/04 07:28:28;;;;;;;59.97;24.25;;;8.00;99.90;;;;;;5027205;28;20535;-90
2024/03/04 07:30:53;;;;;;;65.18;22.88;;;8.00;99.90;;;;;;5025131;28;20036;-90
2024/03/04 07:33:19;;;;;;;58.33;22.08;;;8.00;99.90;;;;;;4991969;28;20040;-91
2024/03/04 07:35:47;;;;;;;58.90;22.77;;;8.00;99.90;;;;;;4950856;28;20029;-91
2024/03/04 07:38:15;;;;;;;55.75;20.55;;;8.00;99.90;;;;;;4989034;28;20041;-89
2024/03/04 07:40:41;;;;;;;60.38;22.95;;;8.00;99.90;;;;;;5030857;28;20936;-91
2024/03/04 07:43:07;;;;;;;63.10;23.50;;;8.00;99.90;;;;;;5024390;28;20059;-91
2024/03/04 07:45:32;;;;;;;59.08;22.42;;;8.00;99.90;;;;;;5061599;28;20029;-90
2024/03/04 07:47:58;;;;;;;63.67;20.13;;;8.00;99.90;;;;;;5067617;28;20507;-92
2024/03/04 07:50:24;;;;;;;66.28;23.33;;;8.00;99.90;;;;;;5061762;28;20104;-90
2024/03/04 07:52:50;;;;;;;62.20;24.10;;;8.00;99.90;;;;;;5046745;28;20297;-90
2024/03/04 07:55:16;;;;;;;60.22;22.40;;;8.00;99.90;;;;;;5051774;28;20021;-90
2024/03/04 07:57:43;;;;;;;64.10;23.77;;;8.00;99.90;;;;;;5055507;28;20032;-90
2024/03/04 08:00:15;;;;;;;58.80;22.73;;;8.10;99.90;;;;;;5057790;28;20028;-91
2024/03/04 08:02:42;;;;;;;57.55;20.63;;;8.10;99.90;;;;;;5063644;28;20461;-90
2024/03/04 08:05:09;;;;;;;64.32;22.13;;;8.20;99.90;;;;;;5052660;28;20032;-90
2024/03/04 08:07:35;;;;;;;68.75;23.60;;;8.20;99.90;;;;;;5042134;28;20021;-91
2024/03/04 08:10:00;;;;;;;60.30;22.42;;;8.20;99.90;;;;;;5063172;28;20036;-92
2024/03/04 08:12:26;;;;;;;65.20;22.77;;;8.10;99.90;;;;;;5058578;28;20150;-92
2024/03/04 08:14:51;;;;;;;57.50;22.25;;;8.20;99.90;;;;;;5077434;28;20028;-91
2024/03/04 08:17:17;;;;;;;58.17;26.38;;;8.10;99.90;;;;;;5061242;28;20269;-90
2024/03/04 08:19:46;;;;;;;56.10;24.55;;;8.20;99.90;;;;;;5044534;28;20078;-93
2024/03/04 08:22:12;;;;;;;61.83;23.77;;;8.20;99.90;;;;;;5058633;28;20033;-89
2024/03/04 08:24:44;;;;;;;50.30;22.52;;;8.20;99.90;;;;;;5059316;28;20040;-91
2024/03/04 08:27:09;;;;;;;62.83;23.40;;;8.30;99.90;;;;;;5041141;28;20064;-91
2024/03/04 08:29:35;;;;;;;59.47;22.85;;;8.30;99.90;;;;;;5050256;28;20033;-89
2024/03/04 08:32:01;;;;;;;59.40;22.27;;;8.30;99.90;;;;;;5055573;28;20017;-90
2024/03/04 08:34:32;;;;;;;62.33;23.50;;;8.30;99.90;;;;;;5041985;28;20097;-90
2024/03/04 08:36:58;;;;;;;50.42;21.20;;;8.40;99.90;;;;;;5048255;28;20475;-91
2024/03/04 08:39:24;;;;;;;66.75;21.70;;;8.40;99.90;;;;;;5059719;28;20387;-91
2024/03/04 08:41:50;;;;;;;60.92;22.80;;;8.40;99.90;;;;;;5063230;28;20032;-90
2024/03/04 08:44:16;;;;;;;65.38;23.42;;;8.40;99.90;;;;;;5075778;28;20643;-90
2024/03/04 08:46:43;;;;;;;51.13;21.50;;;8.40;99.90;;;;;;5047166;28;20061;-91
2024/03/04 08:49:09;;;;;;;53.20;20.73;;;8.40;99.90;;;;;;5058193;28;20080;-91
2024/03/04 08:51:35;;;;;;;50.88;19.92;;;8.40;99.90;;;;;;5057908;28;20097;-90
2024/03/04 08:54:00;;;;;;;51.25;21.27;;;8.40;99.90;;;;;;5058826;28;20025;-90
2024/03/04 08:56:27;;;;;;;52.88;19.38;;;8.40;99.90;;;;;;5058267;28;20029;-92
2024/03/04 08:58:56;;;;;;;58.45;21.10;;;8.40;99.90;;;;;;5059125;28;20111;-90
2024/03/04 09:01:24;;;;;;;54.92;22.05;;;8.50;99.90;;;;;;5066443;28;20515;-89
2024/03/04 09:03:51;;;;;;;60.70;22.13;;;8.50;99.90;;;;;;5057537;28;20071;-89
2024/03/04 09:06:18;;;;;;;63.22;23.85;;;8.40;99.90;;;;;;5058387;28;20025;-91
2024/03/04 09:08:43;;;;;;;58.70;21.98;;;8.50;99.90;;;;;;5050646;28;20037;-90
2024/03/04 09:11:10;;;;;;;54.65;21.30;;;8.50;99.90;;;;;;5056890;28;20034;-90
2024/03/04 09:13:36;;;;;;;51.67;21.77;;;8.50;99.90;;;;;;5058608;28;20017;-90
2024/03/04 09:16:02;;;;;;;56.08;21.08;;;8.60;99.90;;;;;;5058229;28;20707;-91
2024/03/04 09:18:28;;;;;;;47.80;21.95;;;8.50;99.90;;;;;;5057956;28;20021;-91
2024/03/04 09:20:54;;;;;;;54.08;21.00;;;8.50;99.90;;;;;;5049933;28;20032;-90
2024/03/04 09:23:20;;;;;;;53.50;19.88;;;8.50;99.90;;;;;;5047001;28;20538;-90
2024/03/04 09:25:48;;;;;;;53.47;19.85;;;8.60;99.90;;;;;;5059971;28;20025;-91
2024/03/04 09:28:14;;;;;;;56.17;22.42;;;8.50;99.90;;;;;;5071806;28;20024;-90
2024/03/04 09:30:40;;;;;;;54.75;20.92;;;8.50;99.90;;;;;;5046018;28;20034;-90
2024/03/04 09:33:07;;;;;;;53.15;21.00;;;8.50;99.90;;;;;;5055396;28;20039;-91
2024/03/04 09:35:35;;;;;;;49.85;20.45;;;8.60;99.90;;;;;;5062582;28;20039;-90
2024/03/04 09:38:01;;;;;;;52.50;19.92;;;8.60;99.90;;;;;;5060352;28;20100;-91
2024/03/04 09:40:27;;;;;;;53.55;20.77;;;8.50;99.90;;;;;;5055070;28;20053;-90
2024/03/04 09:43:11;;;;;;;58.03;20.30;;;8.60;99.90;;;;;;5070012;28;20084;-90
2024/03/04 09:45:39;;;;;;;50.03;19.27;;;8.70;99.90;;;;;;5080600;28;20032;-90
2024/03/04 09:48:08;;;;;;;49.88;19.08;;;8.70;99.90;;;;;;5059584;28;20112;-91
2024/03/04 09:50:34;;;;;;;54.50;21.60;;;8.60;99.90;;;;;;5060808;28;20027;-89
2024/03/04 09:53:04;;;;;;;53.38;20.42;;;8.60;99.90;;;;;;5062735;28;20451;-90
2024/03/04 09:55:29;;;;;;;54.55;21.10;;;8.70;99.90;;;;;;5062104;28;20033;-90
2024/03/04 09:57:55;;;;;;;47.85;21.40;;;8.70;99.90;;;;;;5059283;28;20234;-90
2024/03/04 10:00:22;;;;;;;50.30;19.75;;;8.80;99.90;;;;;;5057222;28;20036;-93
2024/03/04 10:02:48;;;;;;;48.58;19.48;;;8.80;99.90;;;;;;5031512;28;20512;-91
2024/03/04 10:05:17;;;;;;;51.03;20.83;;;8.80;99.90;;;;;;5059744;28;20025;-91
2024/03/04 10:07:45;;;;;;;46.95;20.27;;;8.90;99.90;;;;;;5060357;28;20021;-92
2024/03/04 10:10:12;;;;;;;48.85;18.25;;;8.70;99.90;;;;;;5068225;28;20077;-89
2024/03/04 10:12:39;;;;;;;51.25;19.65;;;8.70;99.90;;;;;;5060098;28;20025;-90
2024/03/04 10:15:09;;;;;;;53.00;18.73;;;8.70;99.90;;;;;;5061066;28;20021;-90
2024/03/04 10:17:35;;;;;;;50.30;20.00;;;8.80;99.90;;;;;;5068740;28;20029;-93
2024/03/04 10:20:06;;;;;;;50.47;19.48;;;8.70;99.90;;;;;;5061624;28;20499;-91
2024/03/04 10:22:39;;;;;;;49.50;19.25;;;8.70;99.90;;;;;;5062475;28;20017;-90
2024/03/04 10:25:08;;;;;;;46.83;17.85;;;8.70;99.90;;;;;;5053739;28;20025;-91
2024/03/04 10:27:50;;;;;;;50.50;19.08;;;8.60;99.90;;;;;;5058221;28;20018;-91
2024/03/04 10:30:25;;;;;;;46.05;18.80;;;8.60;99.90;;;;;;5058250;28;20028;-91
2024/03/04 10:32:59;;;;;;;53.17;19.35;;;8.60;99.90;;;;;;5051192;28;20074;-90
2024/03/04 10:35:26;;;;;;;54.90;21.50;;;8.50;99.90;;;;;;5046383;28;20025;-90
2024/03/04 10:37:56;;;;;;;49.90;20.02;;;8.60;99.90;;;;;;5065785;28;20296;-90
2024/03/04 10:40:24;;;;;;;49.03;19.25;;;8.70;99.90;;;;;;5056226;28;20028;-90
2024/03/04 10:42:50;;;;;;;52.53;19.13;;;8.70;99.90;;;;;;5062773;28;20024;-89
2024/03/04 10:45:17;;;;;;;47.25;19.98;;;8.70;99.90;;;;;;5061134;28;20083;-91
2024/03/04 10:47:46;;;;;;;54.25;19.02;;;8.70;99.90;;;;;;5067165;28;20041;-91
2024/03/04 10:50:15;;;;;;;55.88;20.92;;;8.50;99.90;;;;;;5066558;28;20040;-90
2024/03/04 10:52:41;;;;;;;54.40;21.17;;;8.50;99.90;;;;;;5067199;28;20251;-90
2024/03/04 10:55:07;;;;;;;45.08;19.15;;;8.60;99.90;;;;;;5075021;28;20027;-91
2024/03/04 10:57:34;;;;;;;44.80;17.45;;;8.60;99.90;;;;;;5064546;28;20037;-88
2024/03/04 11:00:17;;;;;;;60.83;19.25;;;8.60;99.90;;;;;;5069228;28;20094;-90
2024/03/04 11:03:04;;;;;;;47.50;17.48;;;8.60;99.90;;;;;;5068491;28;20095;-91
2024/03/04 11:05:33;;;;;;;;;;;8.60;99.90;;;;;;5071153;28;20028;-89
2024/03/04 11:08:32;;;;;;;42.20;17.38;;;8.70;99.90;;;;;;5069283;28;19909;-89
2024/03/04 11:11:26;;;;;;;46.63;18.17;;;8.60;99.90;;;;;;5071793;28;20033;-90
2024/03/04 11:14:03;;;;;;;47.28;19.23;;;8.70;99.90;;;;;;5072321;28;20223;-89
2024/03/04 11:16:41;;;;;;;45.30;19.55;;;8.60;99.90;;;;;;5046292;28;20040;-90
2024/03/04 11:19:22;;;;;;;43.72;18.45;;;8.70;99.90;;;;;;5069908;28;20028;-94
2024/03/04 11:21:49;;;;;;;45.45;16.90;;;8.60;99.90;;;;;;5040506;28;20032;-90
2024/03/04 11:24:16;;;;;;;49.00;18.30;;;8.60;99.90;;;;;;5063393;28;20163;-88
2024/03/04 11:26:43;;;;;;;44.10;17.40;;;8.60;99.90;;;;;;5069395;28;20031;-90
2024/03/04 11:29:11;;;;;;;43.17;16.63;;;8.60;99.90;;;;;;5063301;28;20017;-89
2024/03/04 11:31:38;;;;;;;44.03;17.17;;;8.50;99.90;;;;;;5068372;28;20025;-93
2024/03/04 11:34:05;;;;;;;45.97;18.40;;;8.50;99.90;;;;;;5067612;28;20399;-89
2024/03/04 11:36:35;;;;;;;45.25;18.30;;;8.50;99.90;;;;;;5063534;28;20107;-90
2024/03/04 11:39:05;;;;;;;46.10;18.20;;;8.50;99.90;;;;;;5071784;28;20025;-91
2024/03/04 11:41:41;;;;;;;42.25;16.88;;;8.50;99.90;;;;;;5055727;28;20063;-89
2024/03/04 11:44:08;;;;;;;41.55;17.08;;;8.60;99.90;;;;;;5069450;28;20530;-90
2024/03/04 11:46:38;;;;;;;42.15;16.52;;;8.50;99.90;;;;;;5068548;28;20347;-89
2024/03/04 11:49:23;;;;;;;42.78;16.58;;;8.50;99.90;;;;;;5063603;28;20081;-89
2024/03/04 11:52:07;;;;;;;46.75;17.33;;;8.60;99.90;;;;;;5060624;28;20025;-92
2024/03/04 11:54:33;;;;;;;38.53;15.93;;;8.60;99.90;;;;;;5062333;28;20074;-91
2024/03/04 11:56:59;;;;;;;40.88;16.92;;;8.70;99.90;;;;;;5060211;28;20089;-90
2024/03/04 11:59:25;;;;;;;38.20;15.27;;;8.60;99.90;;;;;;5061979;28;20043;-89
2024/03/04 12:01:52;;;;;;;40.75;15.07;;;8.60;99.90;;;;;;5065745;28;20043;-91
2024/03/04 12:04:19;;;;;;;41.03;16.88;;;8.60;99.90;;;;;;5071189;28;20135;-91
2024/03/04 12:06:47;;;;;;;42.60;16.05;;;8.60;99.90;;;;;;5066330;28;20032;-90
2024/03/04 12:09:16;;;;;;;40.75;15.57;;;8.50;99.90;;;;;;5076570;28;20020;-90
2024/03/04 12:11:42;;;;;;;38.72;15.75;;;8.50;99.90;;;;;;5068309;28;20151;-90
2024/03/04 12:14:08;;;;;;;39.53;16.80;;;8.40;99.90;;;;;;5051757;28;20005;-91
2024/03/04 12:16:34;;;;;;;34.28;14.25;;;8.40;99.90;;;;;;5075618;28;20029;-91
2024/03/04 12:19:00;;;;;;;45.88;17.23;;;8.40;99.90;;;;;;5036791;28;20037;-90
2024/03/04 12:21:27;;;;;;;41.28;19.73;;;8.40;99.90;;;;;;5067880;28;20025;-90
2024/03/04 12:23:55;;;;;;;41.72;17.30;;;8.40;99.90;;;;;;5073005;28;20024;-90
2024/03/04 12:26:21;;;;;;;41.35;15.45;;;8.40;99.90;;;;;;5064255;28;20028;-91
2024/03/04 12:29:08;;;;;;;40.80;16.05;;;8.40;99.90;;;;;;5044927;28;20063;-92
2024/03/04 12:31:37;;;;;;;38.55;16.40;;;8.50;99.90;;;;;;5062873;28;20029;-90
2024/03/04 12:34:05;;;;;;;40.30;17.05;;;8.50;99.90;;;;;;5070008;28;20088;-89
2024/03/04 12:36:31;;;;;;;43.20;16.35;;;8.50;99.90;;;;;;5070219;28;20025;-89
2024/03/04 12:38:57;;;;;;;41.10;17.38;;;8.50;99.90;;;;;;5059390;28;20028;-90
2024/03/04 12:41:26;;;;;;;39.55;16.60;;;8.50;99.90;;;;;;5045012;28;20033;-89